Skip Navigation Links
NOAA logo - Click to go to the NOAA homepage
NOAA's National Weather Service
Alaska Aviation Weather Unit
  NWS logo - Click to go to the NWS homepage
Left Navbar Graphic     21 AKDT = 05 GMT

   
NOAA is celebrating 200 years of science, service, and stewardship. Visit the NOAA 200th celebration Web site to learn more.
USA.gov is the U.S. Government's official Web portal to all Federal, state and local government Web resources and services.
Facebook
NWS on Facebook

Important Change Regarding the AAWU Web Presence

 

Over the last several months, the AAWU has been working to navigate its webpages to a nationally supported server. Security, as well as other needs, have necessitated the change.  In the process, we have made an effort to enhance the functionality of our website, as well as some of our products. As of June 27, 2017, aawu.arh.noaa.gov will be discontinued. The new AAWU web address is weather.gov/aawu. It is now live and will run in-parallel with the old site until it is discontinued. Please send any feedback or questions regarding the new webpages to nws.ar.aawu.webauthors@noaa.gov.  Thank you for your patience during this time of transition.
AAWU Home :: Display TAF Add Bookmark
METAR PATO 242353Z AUTO 30006KT 10SM OVC047 17/09 A3008 RMK AO2 SLP185
     T01720089 10178 20122 58015 TSNO=

METAR PATO 250053Z AUTO 00000KT 10SM OVC046 18/09 A3006 RMK AO2
    SLP179 T01780089 TSNO=

METAR PATO 250153Z AUTO VRB04KT 10SM BKN044 16/07 A3005 RMK AO2 SLP175
     T01560072 TSNO=

METAR PATO 250253Z AUTO 09007KT 10SM OVC050 14/07 A3005 RMK AO2 SLP174
     T01390067 56011 TSNO=

METAR PATO 250353Z AUTO 11007KT 080V140 10SM OVC055 16/08 A3005 RMK AO2
     SLP175 T01560078 TSNO=

METAR PATO 250453Z AUTO 10007KT 10SM OVC055 13/07 A3005 RMK AO2 SLP176
     T01330067 TSNO=


NOAA's National Weather Service
Alaska Aviation Weather Unit
6930 Sand Lake Road
Anchorage, AK 99502-1845
Disclaimer
Credits
Glossary
Privacy Policy
About Us
Career Opportunities
Contact AAWU Internet Services Site last modified: April, 17th 2012